Time;durP1;ratioP1;P1;durP2;ratioP2;P2;SDS_P1;SDS_P2;PMS_P1;PMS_P2;Temp;Humidity;BMP_temperature;BMP_pressure;BME280_temperature;BME280_humidity;BME280_pressure;Samples;Min_cycle;Max_cycle;Signal;HPM_P1;HPM_P2
2023/09/07 00:00:10;;;;;;;2.40;2.27;;;21.60;68.80;20.90;96840.00;;;;5007278;28;20514;-87
2023/09/07 00:02:38;;;;;;;2.47;2.03;;;21.60;68.70;20.90;96842.00;;;;5007203;28;20202;-87
2023/09/07 00:05:07;;;;;;;3.03;2.23;;;21.50;68.50;20.90;96838.00;;;;5012294;28;20194;-88
2023/09/07 00:07:34;;;;;;;2.83;2.20;;;21.50;68.50;20.90;96841.00;;;;5004324;28;20199;-88
2023/09/07 00:10:03;;;;;;;2.10;2.00;;;21.60;68.60;20.90;96847.00;;;;5011900;28;20200;-87
2023/09/07 00:12:32;;;;;;;2.23;2.07;;;21.50;68.50;20.90;96849.00;;;;4987968;28;20198;-87
2023/09/07 00:14:59;;;;;;;3.33;2.00;;;21.50;68.50;20.90;96849.00;;;;5010279;28;20590;-87
2023/09/07 00:17:27;;;;;;;2.00;1.80;;;21.50;68.50;20.90;96846.00;;;;5013781;28;20198;-87
2023/09/07 00:19:56;;;;;;;2.90;2.60;;;21.50;68.40;20.90;96855.00;;;;5013788;28;20190;-88
2023/09/07 00:22:25;;;;;;;2.13;2.03;;;21.50;68.40;20.90;96850.00;;;;5013668;28;20252;-87
2023/09/07 00:24:53;;;;;;;2.47;2.27;;;21.50;68.40;20.90;96850.00;;;;4996213;28;20213;-87
2023/09/07 00:27:20;;;;;;;2.70;2.50;;;21.50;69.20;20.90;96848.00;;;;5012140;28;20198;-88
2023/09/07 00:29:49;;;;;;;2.50;2.30;;;21.50;68.40;20.90;96854.00;;;;5009458;28;20190;-88
2023/09/07 00:32:16;;;;;;;2.17;2.07;;;21.50;68.30;20.90;96855.00;;;;5007741;28;20193;-87
2023/09/07 00:34:44;;;;;;;2.33;2.20;;;21.50;68.30;20.80;96847.00;;;;5014271;28;20201;-88
2023/09/07 00:37:11;;;;;;;2.53;2.33;;;21.50;68.30;20.80;96848.00;;;;5015509;28;20214;-87
2023/09/07 00:39:39;;;;;;;2.67;2.47;;;21.50;68.30;20.80;96847.00;;;;5014143;28;20213;-87
2023/09/07 00:42:06;;;;;;;2.17;2.07;;;21.50;68.40;20.80;96838.00;;;;4992936;28;20218;-87
2023/09/07 00:44:33;;;;;;;3.13;2.37;;;21.50;68.40;20.80;96837.00;;;;5011047;28;20200;-87
2023/09/07 00:47:02;;;;;;;2.50;2.27;;;21.40;68.30;20.70;96839.00;;;;5015214;28;20228;-87
2023/09/07 00:49:30;;;;;;;3.07;2.27;;;21.40;68.40;20.70;96830.00;;;;5008612;28;20199;-87
2023/09/07 00:51:57;;;;;;;2.80;2.50;;;21.40;68.40;20.70;96841.00;;;;5012924;28;20689;-88
2023/09/07 00:54:25;;;;;;;2.33;2.23;;;21.40;68.40;20.70;96834.00;;;;5015277;28;20230;-87
2023/09/07 00:56:52;;;;;;;2.43;2.23;;;21.40;68.50;20.70;96834.00;;;;5007091;28;20790;-88
2023/09/07 00:59:19;;;;;;;3.50;2.70;;;21.30;68.50;20.70;96828.00;;;;5009590;28;20569;-87
2023/09/07 01:01:47;;;;;;;2.10;2.00;;;21.30;68.50;20.60;96824.00;;;;4996674;28;20214;-87
2023/09/07 01:04:16;;;;;;;2.70;2.50;;;21.30;68.30;20.60;96823.00;;;;5011287;28;20750;-87
2023/09/07 01:06:51;;;;;;;2.40;2.20;;;21.30;68.30;20.60;96828.00;;;;5012649;28;20704;-87
2023/09/07 01:09:23;;;;;;;2.30;2.10;;;21.30;68.50;20.60;96827.00;;;;5006992;28;20801;-87
2023/09/07 01:11:52;;;;;;;2.13;2.03;;;21.30;68.40;20.50;96832.00;;;;5010918;28;20205;-87
2023/09/07 01:14:19;;;;;;;2.37;2.20;;;21.20;68.40;20.50;96825.00;;;;5012236;28;20632;-87
2023/09/07 01:16:47;;;;;;;2.87;2.13;;;21.20;68.50;20.50;96821.00;;;;5011194;28;20224;-87
2023/09/07 01:19:17;;;;;;;2.10;2.00;;;21.20;68.50;20.40;96825.00;;;;5013016;28;20190;-86
2023/09/07 01:21:47;;;;;;;2.47;2.27;;;21.20;68.50;20.40;96822.00;;;;5011584;28;20300;-87
2023/09/07 01:24:16;;;;;;;2.53;2.33;;;21.20;68.50;20.40;96828.00;;;;5008894;28;20198;-87
2023/09/07 01:26:49;;;;;;;2.17;2.03;;;21.10;68.40;20.40;96826.00;;;;5009902;28;20214;-87
2023/09/07 01:29:17;;;;;;;2.27;2.13;;;21.10;68.50;20.30;96832.00;;;;5003808;28;20202;-87
2023/09/07 01:31:45;;;;;;;2.37;2.17;;;21.10;68.50;20.30;96830.00;;;;4996540;28;20259;-87
2023/09/07 01:34:12;;;;;;;2.50;2.30;;;21.10;68.70;20.30;96833.00;;;;5007598;28;20198;-87
2023/09/07 01:36:39;;;;;;;2.70;2.30;;;21.00;68.50;20.20;96831.00;;;;5006180;28;20217;-88
2023/09/07 01:39:09;;;;;;;2.73;2.20;;;21.00;68.60;20.20;96831.00;;;;5009895;28;20203;-87
2023/09/07 01:41:37;;;;;;;2.53;2.33;;;20.90;68.60;20.10;96827.00;;;;5005651;28;20218;-87
2023/09/07 01:44:05;;;;;;;2.53;2.33;;;20.90;68.70;20.10;96827.00;;;;5014015;28;20631;-87
2023/09/07 01:46:32;;;;;;;3.17;2.40;;;20.90;68.80;20.10;96825.00;;;;5006183;28;20216;-87
2023/09/07 01:48:59;;;;;;;2.30;2.10;;;20.80;68.70;20.10;96825.00;;;;5006022;28;20194;-87
2023/09/07 01:51:27;;;;;;;2.70;2.47;;;20.80;68.60;20.00;96826.00;;;;5007867;28;20207;-87
2023/09/07 01:53:56;;;;;;;2.47;2.33;;;20.80;68.70;20.00;96825.00;;;;5012500;28;20205;-87
2023/09/07 01:56:24;;;;;;;2.73;2.30;;;20.80;68.80;20.00;96824.00;;;;5008186;28;20218;-87
2023/09/07 01:58:52;;;;;;;2.93;2.30;;;20.70;68.90;19.90;96826.00;;;;5010706;28;20201;-87
2023/09/07 02:01:29;;;;;;;2.50;2.30;;;20.70;68.90;19.90;96825.00;;;;5012620;28;20224;-87
2023/09/07 02:03:56;;;;;;;2.33;2.10;;;20.60;68.90;19.80;96821.00;;;;5012486;28;20686;-87
2023/09/07 02:06:24;;;;;;;2.60;2.40;;;20.60;68.90;19.80;96830.00;;;;5012707;28;20220;-87
2023/09/07 02:08:51;;;;;;;2.40;2.30;;;20.60;69.00;19.70;96825.00;;;;5004727;28;20748;-87
2023/09/07 02:11:19;;;;;;;2.30;2.20;;;20.60;69.00;19.70;96821.00;;;;5010461;28;20648;-87
2023/09/07 02:13:49;;;;;;;2.47;2.37;;;20.50;69.10;19.60;96824.00;;;;4983720;28;20195;-87
2023/09/07 02:16:18;;;;;;;2.53;2.33;;;20.50;69.20;19.60;96829.00;;;;5011572;28;20213;-87
2023/09/07 02:18:46;;;;;;;2.37;2.27;;;20.40;69.20;19.60;96819.00;;;;5010848;28;20198;-87
2023/09/07 02:21:14;;;;;;;2.37;2.00;;;20.40;69.20;19.50;96811.00;;;;5006976;28;20217;-86
2023/09/07 02:23:41;;;;;;;2.33;2.13;;;20.40;69.20;19.50;96808.00;;;;5007591;28;20198;-86
2023/09/07 02:26:09;;;;;;;3.07;2.40;;;20.40;69.30;19.50;96816.00;;;;5012004;28;20221;-87
2023/09/07 02:28:36;;;;;;;2.93;2.40;;;20.30;69.40;19.40;96825.00;;;;5004495;28;20192;-87
2023/09/07 02:31:08;;;;;;;2.87;2.60;;;20.30;69.40;19.40;96827.00;;;;5012754;28;20202;-86
2023/09/07 02:33:35;;;;;;;2.37;2.17;;;20.20;69.40;19.40;96825.00;;;;5007966;28;20195;-87
2023/09/07 02:36:03;;;;;;;2.87;2.20;;;20.20;69.50;19.30;96824.00;;;;5012972;28;20240;-86
2023/09/07 02:38:30;;;;;;;2.60;2.40;;;20.20;69.50;19.30;96825.00;;;;5006338;28;20195;-87
2023/09/07 02:40:58;;;;;;;4.13;2.33;;;20.10;69.60;19.30;96815.00;;;;5011265;28;20230;-87
2023/09/07 02:43:26;;;;;;;2.77;2.57;;;20.10;69.60;19.20;96822.00;;;;5006572;28;20200;-86
2023/09/07 02:45:53;;;;;;;2.37;2.17;;;20.10;69.80;19.20;96814.00;;;;5009941;28;20230;-87
2023/09/07 02:48:22;;;;;;;2.53;2.30;;;20.00;69.80;19.20;96831.00;;;;5003778;28;20198;-87
2023/09/07 02:50:50;;;;;;;2.97;2.30;;;20.00;69.90;19.20;96828.00;;;;5010458;28;20208;-86
2023/09/07 02:53:17;;;;;;;2.57;2.40;;;20.00;69.90;19.10;96825.00;;;;5005139;28;20197;-86
2023/09/07 02:55:44;;;;;;;2.10;2.00;;;19.90;69.90;19.10;96819.00;;;;5013116;28;20214;-86
2023/09/07 02:58:12;;;;;;;2.77;2.57;;;20.00;70.00;19.10;96820.00;;;;5012620;28;20193;-86
2023/09/07 03:00:44;;;;;;;2.40;2.20;;;19.90;70.10;19.10;96816.00;;;;5012452;28;20201;-86
2023/09/07 03:03:11;;;;;;;2.40;2.30;;;19.90;70.20;19.00;96810.00;;;;5010948;28;20201;-87
2023/09/07 03:05:41;;;;;;;2.53;2.43;;;19.90;70.20;19.00;96819.00;;;;5003145;28;20244;-86
2023/09/07 03:08:08;;;;;;;2.57;2.37;;;19.80;70.30;19.00;96820.00;;;;4984312;28;20271;-87
2023/09/07 03:10:37;;;;;;;2.47;2.23;;;19.90;70.30;19.00;96816.00;;;;5006135;28;20195;-87
2023/09/07 03:13:05;;;;;;;2.70;2.50;;;19.80;70.40;19.00;96814.00;;;;5009328;28;20321;-86
2023/09/07 03:15:32;;;;;;;3.10;2.47;;;19.80;70.40;19.00;96821.00;;;;5008775;28;20360;-86
2023/09/07 03:17:59;;;;;;;2.70;2.50;;;19.80;70.50;18.90;96824.00;;;;5001972;28;20201;-86
2023/09/07 03:20:27;;;;;;;2.87;2.67;;;19.80;70.50;18.90;96822.00;;;;5003056;28;20260;-86
2023/09/07 03:22:57;;;;;;;2.93;2.60;;;19.70;70.40;18.90;96819.00;;;;4984529;28;20221;-86
2023/09/07 03:25:24;;;;;;;4.53;2.60;;;19.80;70.50;18.90;96823.00;;;;5005994;28;20226;-86
2023/09/07 03:27:52;;;;;;;2.47;2.30;;;19.70;70.50;18.90;96826.00;;;;5009573;28;20198;-86
2023/09/07 03:30:20;;;;;;;2.43;2.33;;;19.70;70.60;18.80;96828.00;;;;4989294;28;20201;-87
2023/09/07 03:32:47;;;;;;;2.53;2.33;;;19.70;70.70;18.80;96822.00;;;;5003644;28;20196;-86
2023/09/07 03:35:15;;;;;;;2.80;2.60;;;19.70;70.70;18.80;96827.00;;;;5005541;28;20235;-87
2023/09/07 03:37:44;;;;;;;2.73;2.53;;;19.60;70.60;18.80;96815.00;;;;5007848;28;20583;-86
2023/09/07 03:40:12;;;;;;;2.67;2.47;;;19.60;70.60;18.80;96818.00;;;;5006904;28;20194;-86
2023/09/07 03:42:40;;;;;;;2.13;2.03;;;19.60;70.70;18.70;96813.00;;;;5008814;28;20219;-86
2023/09/07 03:45:08;;;;;;;2.60;2.23;;;19.60;70.70;18.70;96825.00;;;;5005135;28;20588;-86
2023/09/07 03:47:35;;;;;;;2.77;2.47;;;19.50;70.70;18.70;96817.00;;;;5009611;28;20198;-86
2023/09/07 03:50:02;;;;;;;3.00;2.53;;;19.50;70.80;18.60;96825.00;;;;5011064;28;20199;-87
2023/09/07 03:52:30;;;;;;;2.50;2.30;;;19.50;70.90;18.60;96818.00;;;;5005664;28;20609;-86
2023/09/07 03:54:58;;;;;;;2.97;2.50;;;19.50;71.00;18.60;96819.00;;;;5007781;28;20195;-87
2023/09/07 03:57:27;;;;;;;2.53;2.33;;;19.50;71.00;18.60;96814.00;;;;5002039;28;20264;-86
2023/09/07 03:59:56;;;;;;;2.77;2.50;;;19.40;71.10;18.60;96816.00;;;;4998144;28;20190;-87
2023/09/07 04:02:23;;;;;;;2.30;2.20;;;19.40;71.00;18.60;96815.00;;;;5010153;28;20638;-86
2023/09/07 04:04:53;;;;;;;2.47;2.30;;;19.40;71.00;18.50;96822.00;;;;5004602;28;20879;-86
2023/09/07 04:07:21;;;;;;;2.30;2.10;;;19.40;71.10;18.50;96816.00;;;;5002628;28;20571;-87
2023/09/07 04:09:51;;;;;;;2.53;2.43;;;19.40;71.20;18.50;96812.00;;;;5010538;28;20194;-87
2023/09/07 04:12:18;;;;;;;3.10;2.90;;;19.30;71.10;18.50;96815.00;;;;5012706;28;20206;-86
2023/09/07 04:14:46;;;;;;;2.57;2.37;;;19.30;71.10;18.50;96817.00;;;;5014060;28;20272;-86
2023/09/07 04:17:14;;;;;;;2.70;2.50;;;19.30;71.10;18.50;96817.00;;;;5007330;28;20198;-86
2023/09/07 04:19:43;;;;;;;3.03;2.40;;;19.30;71.10;18.40;96813.00;;;;5015113;28;20201;-86
2023/09/07 04:22:11;;;;;;;6.33;2.77;;;19.30;71.10;18.40;96825.00;;;;5006793;28;20292;-86
2023/09/07 04:24:38;;;;;;;2.77;2.57;;;19.30;71.20;18.40;96822.00;;;;5011654;28;20194;-86
2023/09/07 04:27:06;;;;;;;3.03;2.83;;;19.20;71.30;18.40;96826.00;;;;5014229;28;20590;-86
2023/09/07 04:29:33;;;;;;;2.77;2.57;;;19.20;72.00;18.40;96828.00;;;;5007050;28;20194;-86
2023/09/07 04:32:02;;;;;;;3.50;3.20;;;19.20;71.30;18.40;96834.00;;;;5011269;28;20210;-86
2023/09/07 04:34:29;;;;;;;2.63;2.43;;;19.20;71.40;18.40;96832.00;;;;5002572;28;20665;-86
2023/09/07 04:36:56;;;;;;;2.70;2.40;;;19.20;71.50;18.30;96833.00;;;;5007800;28;20214;-86
2023/09/07 04:39:23;;;;;;;2.73;2.53;;;19.20;71.60;18.30;96834.00;;;;5004147;28;20202;-87
2023/09/07 04:41:52;;;;;;;3.07;2.80;;;19.20;71.60;18.30;96837.00;;;;5010699;28;20234;-87
2023/09/07 04:44:20;;;;;;;3.20;2.47;;;19.20;71.60;18.30;96840.00;;;;5008289;28;20190;-87
2023/09/07 04:46:47;;;;;;;3.30;2.80;;;19.20;71.60;18.30;96838.00;;;;5003800;28;20265;-87
2023/09/07 04:49:16;;;;;;;2.70;2.50;;;19.20;71.50;18.30;96846.00;;;;5007788;28;20245;-86
2023/09/07 04:51:43;;;;;;;3.27;3.00;;;19.20;71.40;18.30;96835.00;;;;4998333;28;20676;-87
2023/09/07 04:54:11;;;;;;;2.83;2.60;;;19.20;71.30;18.30;96839.00;;;;5003613;28;20198;-88
2023/09/07 04:56:38;;;;;;;2.70;2.50;;;19.10;71.30;18.30;96834.00;;;;4998563;28;20219;-88
2023/09/07 04:59:05;;;;;;;3.60;3.00;;;19.20;71.40;18.30;96833.00;;;;5005701;28;20198;-86
2023/09/07 05:01:32;;;;;;;2.80;2.60;;;19.20;71.40;18.30;96836.00;;;;5005153;28;20205;-88
2023/09/07 05:04:01;;;;;;;3.43;2.90;;;19.20;71.40;18.30;96831.00;;;;5009336;28;20195;-88
2023/09/07 05:06:30;;;;;;;2.73;2.53;;;19.20;72.10;18.20;96831.00;;;;5015161;28;20762;-88
2023/09/07 05:08:57;;;;;;;3.47;3.00;;;19.20;71.40;18.30;96844.00;;;;5014448;28;20281;-88
2023/09/07 05:11:24;;;;;;;2.73;2.53;;;19.20;71.30;18.20;96832.00;;;;5012388;28;20200;-87
2023/09/07 05:13:51;;;;;;;2.83;2.63;;;19.10;71.30;18.20;96838.00;;;;5011738;28;20199;-88
2023/09/07 05:16:19;;;;;;;3.43;3.13;;;19.10;71.20;18.20;96831.00;;;;5007117;28;20214;-87
2023/09/07 05:18:46;;;;;;;3.20;3.00;;;19.10;71.30;18.20;96835.00;;;;5005610;28;20198;-87
2023/09/07 05:21:15;;;;;;;2.97;2.77;;;19.10;71.30;18.20;96837.00;;;;5015506;28;20198;-88
2023/09/07 05:23:44;;;;;;;2.87;2.67;;;19.10;71.40;18.20;96843.00;;;;5006719;28;20226;-88
2023/09/07 05:26:11;;;;;;;3.00;2.80;;;19.10;71.50;18.20;96848.00;;;;5006784;28;20789;-87
2023/09/07 05:28:41;;;;;;;2.40;2.30;;;19.10;71.50;18.20;96849.00;;;;5005468;28;20676;-87
2023/09/07 05:31:09;;;;;;;3.10;2.90;;;19.10;71.60;18.20;96850.00;;;;5005729;28;20197;-86
2023/09/07 05:33:36;;;;;;;2.53;2.33;;;19.10;71.70;18.20;96857.00;;;;5014538;28;20281;-87
2023/09/07 05:36:04;;;;;;;2.77;2.50;;;19.00;71.70;18.20;96853.00;;;;5005036;28;20224;-89
2023/09/07 05:38:31;;;;;;;3.03;2.83;;;19.00;71.80;18.20;96859.00;;;;5013933;28;20224;-87
2023/09/07 05:41:00;;;;;;;3.97;2.70;;;19.00;71.90;18.20;96865.00;;;;4995904;28;20199;-87
2023/09/07 05:43:27;;;;;;;4.33;2.57;;;19.00;72.00;18.20;96872.00;;;;5013590;28;20222;-86
2023/09/07 05:45:54;;;;;;;3.07;2.87;;;19.00;72.10;18.20;96871.00;;;;5013539;28;20570;-87
2023/09/07 05:48:22;;;;;;;3.17;2.97;;;19.00;72.20;18.20;96869.00;;;;4985527;28;20195;-87
2023/09/07 05:50:49;;;;;;;3.20;2.53;;;19.00;72.30;18.20;96876.00;;;;4994106;28;20669;-86
2023/09/07 05:53:17;;;;;;;3.10;2.80;;;19.10;72.50;18.20;96871.00;;;;5009196;28;20660;-86
2023/09/07 05:55:44;;;;;;;2.80;2.60;;;19.00;72.50;18.20;96878.00;;;;5011708;28;20232;-86
2023/09/07 05:58:14;;;;;;;3.57;2.50;;;19.10;72.70;18.30;96881.00;;;;5013923;28;20190;-87
2023/09/07 06:00:42;;;;;;;2.43;2.23;;;19.10;72.80;18.30;96882.00;;;;5013864;28;20194;-87
2023/09/07 06:03:10;;;;;;;3.07;2.87;;;19.10;72.90;18.30;96880.00;;;;5000518;28;20218;-87
2023/09/07 06:05:39;;;;;;;3.27;3.07;;;19.10;73.00;18.30;96878.00;;;;5005082;28;20222;-86
2023/09/07 06:08:07;;;;;;;3.17;2.93;;;19.10;73.10;18.30;96883.00;;;;5002896;28;20252;-87
2023/09/07 06:10:35;;;;;;;2.63;2.43;;;19.10;73.10;18.40;96884.00;;;;5006098;28;20226;-87
2023/09/07 06:13:03;;;;;;;3.60;3.30;;;19.10;73.10;18.40;96875.00;;;;5009303;28;20644;-87
2023/09/07 06:15:32;;;;;;;3.00;2.80;;;19.20;73.20;18.40;96875.00;;;;4970473;28;20220;-87
2023/09/07 06:17:59;;;;;;;3.80;2.97;;;19.20;73.30;18.40;96875.00;;;;5002857;28;20687;-87
2023/09/07 06:20:27;;;;;;;2.97;2.70;;;19.20;73.40;18.50;96871.00;;;;4995873;28;20547;-87
2023/09/07 06:22:54;;;;;;;3.10;2.60;;;19.30;73.60;18.50;96879.00;;;;5003864;28;20233;-86
2023/09/07 06:25:23;;;;;;;3.10;2.80;;;19.30;73.60;18.50;96881.00;;;;5012028;28;20243;-87
2023/09/07 06:27:50;;;;;;;3.17;2.97;;;19.30;73.70;18.60;96879.00;;;;5012858;28;20198;-86
2023/09/07 06:30:18;;;;;;;2.70;2.50;;;19.30;73.70;18.60;96885.00;;;;5012858;28;20205;-87
2023/09/07 06:32:48;;;;;;;2.80;2.60;;;19.30;73.70;18.60;96880.00;;;;5013240;28;20574;-87
2023/09/07 06:35:16;;;;;;;3.13;2.93;;;19.40;74.00;18.70;96882.00;;;;5004871;28;20221;-87
2023/09/07 06:37:44;;;;;;;2.90;2.70;;;19.40;74.10;18.80;96881.00;;;;5003631;28;20600;-87
2023/09/07 06:40:13;;;;;;;3.33;3.00;;;19.50;74.30;18.80;96884.00;;;;5012831;28;20290;-86
2023/09/07 06:42:41;;;;;;;3.13;2.93;;;19.50;74.30;18.90;96880.00;;;;5012740;28;20662;-87
2023/09/07 06:45:09;;;;;;;3.27;3.00;;;19.60;74.30;18.90;96882.00;;;;5000836;28;20217;-87
2023/09/07 06:47:36;;;;;;;3.07;2.87;;;19.60;74.50;19.00;96887.00;;;;5009514;28;20227;-86
2023/09/07 06:50:06;;;;;;;3.27;3.07;;;19.70;74.40;19.10;96888.00;;;;5004825;28;20197;-86
2023/09/07 06:52:34;;;;;;;3.27;3.00;;;19.70;74.50;19.10;96890.00;;;;5000579;28;20674;-87
2023/09/07 06:55:01;;;;;;;2.90;2.70;;;19.80;74.60;19.20;96888.00;;;;5007444;28;20291;-86
2023/09/07 06:57:28;;;;;;;3.50;3.30;;;19.80;74.60;19.30;96892.00;;;;4997601;28;20887;-86
2023/09/07 06:59:56;;;;;;;3.00;2.80;;;19.90;74.50;19.40;96887.00;;;;5007439;28;20200;-86
2023/09/07 07:02:23;;;;;;;3.10;2.83;;;20.00;74.50;19.40;96892.00;;;;5010328;28;20218;-86
2023/09/07 07:04:50;;;;;;;3.37;2.73;;;20.00;74.50;19.50;96899.00;;;;5005280;28;20561;-86
2023/09/07 07:07:19;;;;;;;3.20;3.00;;;20.10;74.50;19.60;96894.00;;;;5011762;28;20212;-86
2023/09/07 07:09:46;;;;;;;3.03;2.83;;;20.10;74.60;19.60;96901.00;;;;5008445;28;20205;-86
2023/09/07 07:12:14;;;;;;;2.87;2.67;;;20.20;74.60;19.70;96898.00;;;;5011719;28;20200;-86
2023/09/07 07:14:41;;;;;;;2.87;2.67;;;20.30;74.60;19.80;96897.00;;;;5007450;28;20201;-86
2023/09/07 07:17:08;;;;;;;3.13;2.93;;;20.30;74.70;19.90;96897.00;;;;5002457;28;20304;-86
2023/09/07 07:19:35;;;;;;;3.53;2.90;;;20.40;74.90;19.90;96904.00;;;;4999743;28;20277;-87
2023/09/07 07:22:03;;;;;;;3.00;2.80;;;20.50;74.60;20.10;96908.00;;;;5003542;28;20198;-87
2023/09/07 07:24:32;;;;;;;3.50;3.20;;;20.60;74.70;20.20;96906.00;;;;5006779;28;20656;-87
2023/09/07 07:27:00;;;;;;;3.10;2.83;;;20.70;74.80;20.30;96914.00;;;;5010494;28;20226;-86
2023/09/07 07:29:27;;;;;;;3.87;3.47;;;20.80;74.80;20.40;96905.00;;;;4997201;28;20681;-88
2023/09/07 07:32:05;;;;;;;3.20;3.00;;;20.90;75.00;20.50;96902.00;;;;5012206;28;20200;-86
2023/09/07 07:34:38;;;;;;;2.90;2.70;;;21.00;75.00;20.60;96910.00;;;;5014247;28;20563;-86
2023/09/07 07:37:06;;;;;;;3.67;3.10;;;21.10;75.00;20.70;96910.00;;;;5015980;28;20301;-87
2023/09/07 07:39:34;;;;;;;3.03;2.83;;;21.20;74.50;20.80;96916.00;;;;4997955;28;20288;-86
2023/09/07 07:42:03;;;;;;;3.90;3.10;;;21.30;74.50;21.00;96917.00;;;;5014007;28;20193;-87
2023/09/07 07:44:30;;;;;;;3.40;3.17;;;21.40;74.40;21.10;96918.00;;;;5007060;28;20217;-86
2023/09/07 07:46:58;;;;;;;3.10;2.90;;;21.50;74.40;21.20;96914.00;;;;5008813;28;20232;-86
2023/09/07 07:49:25;;;;;;;3.03;2.83;;;21.70;74.30;21.30;96918.00;;;;5010154;28;20214;-86
2023/09/07 07:51:55;;;;;;;3.27;3.03;;;21.70;74.30;21.40;96910.00;;;;5012460;28;20577;-86
2023/09/07 07:54:24;;;;;;;3.00;2.80;;;21.90;74.00;21.50;96904.00;;;;5005403;28;20196;-86
2023/09/07 07:56:53;;;;;;;2.90;2.57;;;22.00;73.70;21.70;96917.00;;;;5008707;28;20206;-86
2023/09/07 07:59:21;;;;;;;3.30;3.10;;;22.10;73.70;21.80;96916.00;;;;5011269;28;20190;-86
2023/09/07 08:01:48;;;;;;;2.87;2.67;;;22.20;73.50;21.90;96925.00;;;;5017215;28;20296;-87
2023/09/07 08:04:15;;;;;;;3.10;2.90;;;22.30;73.30;22.00;96922.00;;;;5013336;28;20230;-86
2023/09/07 08:06:43;;;;;;;3.20;2.90;;;22.50;73.20;22.20;96923.00;;;;5005891;28;20210;-86
2023/09/07 08:09:10;;;;;;;3.13;2.93;;;22.60;73.10;22.30;96916.00;;;;5011986;28;20600;-85
2023/09/07 08:11:38;;;;;;;3.10;2.90;;;22.70;72.80;22.40;96922.00;;;;5018581;28;20193;-86
2023/09/07 08:14:07;;;;;;;3.20;2.90;;;22.80;73.10;22.50;96920.00;;;;5018477;28;20255;-87
2023/09/07 08:16:34;;;;;;;3.20;2.90;;;22.90;72.40;22.60;96914.00;;;;5010106;28;20217;-87
2023/09/07 08:19:01;;;;;;;2.90;2.57;;;23.00;72.30;22.70;96923.00;;;;5010369;28;20226;-85
2023/09/07 08:21:28;;;;;;;2.77;2.57;;;23.20;72.30;22.90;96914.00;;;;5018301;28;20207;-86
2023/09/07 08:23:56;;;;;;;2.90;2.70;;;23.30;72.00;23.00;96916.00;;;;5017942;28;20277;-86
2023/09/07 08:26:23;;;;;;;4.30;3.30;;;23.40;72.00;23.10;96916.00;;;;5019218;28;20243;-86
2023/09/07 08:28:50;;;;;;;4.03;2.80;;;23.50;71.90;23.20;96907.00;;;;5016461;28;20198;-85
2023/09/07 08:31:21;;;;;;;3.27;2.73;;;23.60;71.80;23.40;96901.00;;;;5018262;28;20658;-86
2023/09/07 08:33:50;;;;;;;3.03;2.83;;;23.70;71.10;23.50;96896.00;;;;5009889;28;20562;-87
2023/09/07 08:36:22;;;;;;;3.70;2.73;;;23.90;71.00;23.60;96905.00;;;;5007488;28;20217;-86
2023/09/07 08:38:53;;;;;;;3.63;3.27;;;24.00;70.80;23.70;96900.00;;;;5008421;28;20230;-85
2023/09/07 08:41:22;;;;;;;3.00;2.80;;;24.10;70.40;23.80;96915.00;;;;5013862;28;20205;-87
2023/09/07 08:43:56;;;;;;;3.07;2.77;;;24.20;70.20;24.00;96917.00;;;;5015782;28;20228;-87
2023/09/07 08:46:26;;;;;;;2.77;2.50;;;24.30;69.60;24.10;96914.00;;;;5014655;28;20231;-86
2023/09/07 08:48:59;;;;;;;2.77;2.57;;;24.40;69.80;24.20;96919.00;;;;5014854;28;20212;-86
2023/09/07 08:51:27;;;;;;;7.33;2.70;;;24.60;69.80;24.40;96910.00;;;;5013679;28;20205;-86
2023/09/07 08:53:56;;;;;;;2.83;2.63;;;24.70;70.40;24.50;96917.00;;;;5006578;28;20217;-87
2023/09/07 08:56:28;;;;;;;2.37;2.27;;;24.80;69.50;24.70;96915.00;;;;5016355;28;20210;-87
2023/09/07 08:58:55;;;;;;;2.63;2.13;;;24.90;68.70;24.80;96925.00;;;;5015280;28;20563;-86
2023/09/07 09:01:24;;;;;;;2.60;2.50;;;25.10;68.40;25.00;96919.00;;;;5003830;28;20556;-87
2023/09/07 09:03:53;;;;;;;2.50;2.40;;;25.20;68.10;25.10;96915.00;;;;5012275;28;20225;-87
2023/09/07 09:06:22;;;;;;;2.30;2.10;;;25.40;68.20;25.20;96911.00;;;;4998608;28;20218;-86
2023/09/07 09:08:53;;;;;;;3.00;2.63;;;25.50;68.20;25.40;96910.00;;;;5015256;28;20202;-86
2023/09/07 09:11:21;;;;;;;3.03;2.83;;;25.60;68.00;25.50;96911.00;;;;5016248;28;20198;-88
2023/09/07 09:13:52;;;;;;;2.40;2.30;;;25.80;67.40;25.60;96906.00;;;;5016598;28;20583;-87
2023/09/07 09:16:20;;;;;;;3.80;2.50;;;25.90;67.20;25.80;96911.00;;;;5014262;28;20221;-87
2023/09/07 09:18:53;;;;;;;2.53;2.33;;;26.00;67.20;25.90;96913.00;;;;5012161;28;20194;-87
2023/09/07 09:21:22;;;;;;;2.37;2.27;;;26.20;66.20;26.10;96917.00;;;;5018480;28;20275;-87
2023/09/07 09:23:52;;;;;;;2.60;2.40;;;26.30;66.30;26.20;96925.00;;;;5017174;28;20280;-86
2023/09/07 09:26:20;;;;;;;2.40;2.30;;;26.40;66.30;26.30;96919.00;;;;5017950;28;20222;-87
2023/09/07 09:28:50;;;;;;;2.53;2.10;;;26.60;66.20;26.40;96914.00;;;;5015365;28;20579;-87
2023/09/07 09:31:18;;;;;;;2.47;2.27;;;26.70;66.20;26.50;96917.00;;;;5014916;28;20194;-86
2023/09/07 09:33:52;;;;;;;2.60;2.40;;;26.80;65.60;26.70;96913.00;;;;5006642;28;20202;-87
2023/09/07 09:36:19;;;;;;;2.60;2.30;;;26.90;65.10;26.80;96915.00;;;;5015915;28;20214;-88
2023/09/07 09:38:52;;;;;;;2.50;2.30;;;27.00;64.50;26.90;96910.00;;;;5016095;28;20197;-87
2023/09/07 09:41:20;;;;;;;2.78;2.58;;;27.20;63.20;27.00;96906.00;;;;5014289;28;20198;-86
2023/09/07 09:43:51;;;;;;;2.40;2.20;;;27.20;63.70;27.10;96896.00;;;;5014429;28;20221;-87
2023/09/07 09:46:19;;;;;;;2.35;2.00;;;27.40;63.60;27.20;96904.00;;;;5015774;28;20594;-86
2023/09/07 09:48:48;;;;;;;3.58;2.15;;;27.50;63.50;27.30;96904.00;;;;5014314;28;20221;-87
2023/09/07 09:51:19;;;;;;;2.28;2.08;;;27.60;63.20;27.40;96899.00;;;;5017072;28;20288;-87
2023/09/07 09:53:49;;;;;;;2.42;2.22;;;27.70;63.20;27.50;96896.00;;;;5018251;28;20201;-87
2023/09/07 09:56:16;;;;;;;2.45;2.25;;;27.80;62.90;27.60;96898.00;;;;5018601;28;20632;-87
2023/09/07 09:58:44;;;;;;;2.25;1.88;;;27.90;62.60;27.70;96894.00;;;;5001024;28;20730;-87
2023/09/07 10:01:14;;;;;;;1.98;1.88;;;28.00;62.10;27.80;96896.00;;;;5001199;28;20204;-88
2023/09/07 10:03:47;;;;;;;2.00;1.90;;;28.10;62.60;27.90;96900.00;;;;5016934;28;20230;-87
2023/09/07 10:06:24;;;;;;;2.20;2.03;;;28.20;61.60;28.00;96902.00;;;;5015608;28;20221;-87
2023/09/07 10:09:03;;;;;;;2.08;1.98;;;28.30;61.10;28.10;96901.00;;;;5015965;28;20197;-87
2023/09/07 10:11:37;;;;;;;3.15;2.10;;;28.40;61.60;28.20;96894.00;;;;5017047;28;20638;-87
2023/09/07 10:14:06;;;;;;;2.28;2.05;;;28.50;61.00;28.30;96900.00;;;;5016595;28;20630;-87
2023/09/07 10:16:43;;;;;;;2.97;2.13;;;28.60;60.60;28.40;96900.00;;;;5014968;28;20233;-86
2023/09/07 10:19:19;;;;;;;2.97;2.05;;;28.60;59.00;28.50;96905.00;;;;5005008;28;20561;-85
2023/09/07 10:21:49;;;;;;;5.60;2.35;;;28.70;58.60;28.60;96904.00;;;;5012483;28;20212;-86
2023/09/07 10:24:27;;;;;;;5.30;2.42;;;28.80;59.70;28.70;96904.00;;;;5001121;28;20215;-86
2023/09/07 10:26:59;;;;;;;4.35;3.58;;;28.90;58.70;28.80;96896.00;;;;5001582;28;20305;-87
2023/09/07 10:29:27;;;;;;;2.60;2.40;;;29.00;58.90;28.90;96901.00;;;;5012204;28;20280;-85
2023/09/07 10:31:54;;;;;;;2.50;2.30;;;29.10;59.00;29.00;96903.00;;;;5003879;28;20202;-86
2023/09/07 10:34:22;;;;;;;2.67;2.47;;;29.20;59.00;29.00;96893.00;;;;5009773;28;20200;-87
2023/09/07 10:36:57;;;;;;;2.10;2.00;;;29.20;58.80;29.10;96902.00;;;;5006206;28;20588;-86
2023/09/07 10:39:24;;;;;;;2.47;2.30;;;29.30;57.90;29.20;96900.00;;;;5007739;28;20675;-87
2023/09/07 10:41:52;;;;;;;2.38;2.28;;;29.40;58.40;29.30;96896.00;;;;5010886;28;20198;-86
2023/09/07 10:44:27;;;;;;;2.28;2.10;;;29.50;58.10;29.30;96898.00;;;;5005498;28;20702;-87
2023/09/07 10:46:55;;;;;;;2.65;2.50;;;29.50;56.70;29.40;96902.00;;;;5013456;28;20217;-86
2023/09/07 10:49:22;;;;;;;4.03;3.65;;;29.60;57.40;29.40;96897.00;;;;5011896;28;20209;-86
2023/09/07 10:51:51;;;;;;;3.05;2.75;;;29.60;57.50;29.40;96889.00;;;;4996123;28;20687;-86
2023/09/07 10:54:23;;;;;;;2.70;2.35;;;29.70;57.60;29.40;96881.00;;;;5009381;28;20205;-87
2023/09/07 10:56:57;;;;;;;2.45;2.25;;;29.70;57.60;29.40;96892.00;;;;5011301;28;20252;-86
2023/09/07 10:59:28;;;;;;;2.33;2.20;;;29.70;57.50;29.40;96896.00;;;;5004543;28;20203;-86